Time;durP1;ratioP1;P1;durP2;ratioP2;P2;SDS_P1;SDS_P2;PMS_P1;PMS_P2;Temp;Humidity;BMP_temperature;BMP_pressure;BME280_temperature;BME280_humidity;BME280_pressure;Samples;Min_cycle;Max_cycle;Signal;HPM_P1;HPM_P2
2021/03/26 00:02:06;;;;;;;9.63;2.73;;;;;;;6.37;86.45;101459.66;5094338;28;20517;-67
2021/03/26 00:04:33;;;;;;;9.13;3.17;;;;;;;6.37;86.36;101469.59;5094443;28;20440;-67
2021/03/26 00:06:59;;;;;;;2.90;2.57;;;;;;;6.38;86.33;101465.88;5094323;28;20447;-66
2021/03/26 00:09:27;;;;;;;10.23;4.43;;;;;;;6.29;88.07;101468.19;5094336;28;20460;-67
2021/03/26 00:11:55;;;;;;;7.10;5.30;;;;;;;6.28;88.91;101472.72;5094224;28;20498;-68
2021/03/26 00:14:21;;;;;;;2.90;1.90;;;;;;;6.22;90.37;101465.69;5094379;28;20441;-67
2021/03/26 00:16:47;;;;;;;7.47;3.30;;;;;;;6.25;90.51;101470.56;5094272;28;20543;-67
2021/03/26 00:19:13;;;;;;;9.87;3.57;;;;;;;6.36;90.43;101473.38;5094170;28;20547;-68
2021/03/26 00:21:40;;;;;;;6.40;2.93;;;;;;;6.40;90.12;101469.13;5093854;28;20452;-67
2021/03/26 00:24:07;;;;;;;16.60;8.67;;;;;;;6.31;90.82;101469.56;5093710;28;20942;-68
2021/03/26 00:26:33;;;;;;;8.30;4.47;;;;;;;6.32;90.96;101473.84;5094048;28;20444;-67
2021/03/26 00:28:59;;;;;;;2.70;2.50;;;;;;;6.27;91.15;101471.13;5093708;28;20490;-68
2021/03/26 00:31:25;;;;;;;9.10;4.57;;;;;;;6.31;90.89;101469.56;5093584;28;20487;-68
2021/03/26 00:33:51;;;;;;;6.20;1.57;;;;;;;6.25;90.73;101473.25;5106001;22;20493;-69
2021/03/26 00:36:17;;;;;;;3.53;2.57;;;;;;;6.30;90.77;101472.50;5073440;28;20452;-69
2021/03/26 00:38:43;;;;;;;3.13;2.80;;;;;;;6.27;90.18;101465.72;5073503;28;20925;-69
2021/03/26 00:41:10;;;;;;;2.57;2.20;;;;;;;6.17;89.55;101467.50;5073511;28;20444;-69
2021/03/26 00:43:36;;;;;;;7.90;3.40;;;;;;;6.13;88.91;101464.47;5073396;28;20470;-70
2021/03/26 00:46:02;;;;;;;12.40;3.97;;;;;;;6.13;87.79;101469.06;5083587;28;20460;-70
2021/03/26 00:48:28;;;;;;;6.10;3.33;;;;;;;6.09;87.20;101466.03;5093597;28;20432;-70
2021/03/26 00:50:57;;;;;;;5.43;2.13;;;;;;;6.02;87.25;101460.03;5093239;28;20844;-70
2021/03/26 00:53:27;;;;;;;3.90;2.63;;;;;;;6.02;86.74;101457.31;5093313;28;20839;-70
2021/03/26 00:55:54;;;;;;;12.60;1.70;;;;;;;5.80;88.04;101458.09;5093549;28;20823;-70
2021/03/26 00:58:21;;;;;;;0.83;0.83;;;;;;;5.82;88.20;101460.53;5093428;28;20480;-70
2021/03/26 01:00:47;;;;;;;4.23;2.27;;;;;;;5.84;88.42;101450.34;5093479;28;20493;-70
2021/03/26 01:03:14;;;;;;;3.33;2.27;;;;;;;5.91;88.13;101455.56;5093340;28;20467;-70
2021/03/26 01:05:44;;;;;;;15.60;2.53;;;;;;;5.90;89.17;101452.06;5093422;28;20440;-69
2021/03/26 01:08:10;;;;;;;7.07;2.03;;;;;;;5.95;89.91;101452.16;5093425;28;20435;-69
2021/03/26 01:10:40;;;;;;;5.20;2.40;;;;;;;5.98;90.21;101457.03;5092990;28;20436;-69
2021/03/26 01:13:08;;;;;;;3.80;2.57;;;;;;;6.12;90.35;101452.09;5093261;28;20452;-70
2021/03/26 01:15:34;;;;;;;2.93;2.33;;;;;;;6.23;90.14;101453.03;5093020;28;20851;-70
2021/03/26 01:18:03;;;;;;;3.20;3.00;;;;;;;6.24;90.40;101458.19;5093214;28;20476;-70
2021/03/26 01:20:32;;;;;;;8.27;3.57;;;;;;;6.21;90.98;101453.28;5093224;28;20436;-69
2021/03/26 01:22:58;;;;;;;1.70;1.60;;;;;;;6.24;90.85;101455.50;5093109;28;20512;-70
2021/03/26 01:25:29;;;;;;;9.03;2.50;;;;;;;6.31;90.70;101453.41;5093254;28;20452;-70
2021/03/26 01:27:55;;;;;;;7.10;4.73;;;;;;;6.42;90.49;101450.81;5093151;28;20416;-68
2021/03/26 01:30:24;;;;;;;0.70;0.70;;;;;;;6.31;91.38;101448.03;5092729;28;20491;-70
2021/03/26 01:32:51;;;;;;;3.67;2.40;;;;;;;6.35;90.86;101451.03;5092882;28;20476;-70
2021/03/26 01:35:19;;;;;;;6.93;1.90;;;;;;;6.39;90.74;101452.16;5093163;28;20440;-70
2021/03/26 01:37:45;;;;;;;14.53;3.80;;;;;;;6.49;89.65;101456.84;5093122;28;20444;-69
2021/03/26 01:40:15;;;;;;;8.70;5.43;;;;;;;6.52;89.46;101459.03;5092993;28;20449;-70
2021/03/26 01:42:42;;;;;;;3.80;3.50;;;;;;;6.52;88.34;101449.09;5093411;28;20482;-69
2021/03/26 01:45:12;;;;;;;4.20;2.73;;;;;;;6.56;87.85;101444.00;5093085;28;20440;-70
2021/03/26 01:47:39;;;;;;;4.53;3.10;;;;;;;6.60;86.69;101441.59;5093006;28;20447;-69
2021/03/26 01:50:08;;;;;;;3.47;1.80;;;;;;;6.59;86.09;101443.47;5096101;28;20436;-71
2021/03/26 01:52:34;;;;;;;3.53;2.50;;;;;;;6.59;86.18;101435.41;5094646;28;20436;-71
2021/03/26 01:55:00;;;;;;;1.03;1.00;;;;;;;6.62;85.76;101437.59;5092662;28;20440;-69
2021/03/26 01:57:26;;;;;;;4.83;3.43;;;;;;;6.63;85.96;101439.22;5092971;28;20494;-70
2021/03/26 01:59:54;;;;;;;3.40;2.17;;;;;;;6.63;85.70;101436.53;5092846;28;20507;-70
2021/03/26 02:02:23;;;;;;;5.90;4.47;;;;;;;6.59;85.81;101435.41;5092734;28;20523;-70
2021/03/26 02:04:50;;;;;;;7.27;6.00;;;;;;;6.58;86.68;101436.47;5092900;28;20444;-70
2021/03/26 02:07:17;;;;;;;7.70;3.53;;;;;;;6.66;87.17;101436.03;5092845;28;20440;-69
2021/03/26 02:09:45;;;;;;;2.97;2.50;;;;;;;6.61;88.57;101430.59;5092546;28;20809;-70
2021/03/26 02:12:19;;;;;;;7.13;4.83;;;;;;;6.57;89.27;101432.16;5092731;28;20445;-70
2021/03/26 02:14:49;;;;;;;4.77;2.80;;;;;;;6.56;89.62;101433.25;5092890;28;20428;-70
2021/03/26 02:17:19;;;;;;;7.73;3.57;;;;;;;6.49;90.70;101429.94;5092933;28;20436;-69
2021/03/26 02:19:50;;;;;;;5.23;3.97;;;;;;;6.43;91.08;101434.44;5092675;28;20481;-70
2021/03/26 02:22:17;;;;;;;12.03;2.90;;;;;;;6.43;91.22;101426.38;5092757;28;20425;-70
2021/03/26 02:24:47;;;;;;;2.20;2.00;;;;;;;6.45;91.14;101432.31;5096331;28;20444;-70
2021/03/26 02:27:15;;;;;;;3.90;2.40;;;;;;;6.50;90.56;101436.94;5096098;28;20455;-69
2021/03/26 02:29:42;;;;;;;2.90;2.70;;;;;;;6.48;90.69;101444.47;5096237;28;20436;-70
2021/03/26 02:32:26;;;;;;;12.93;2.07;;;;;;;6.35;91.19;101439.47;5096314;28;20444;-70
2021/03/26 02:35:08;;;;;;;5.50;2.93;;;;;;;6.30;91.23;101437.53;5096153;28;20786;-70
2021/03/26 02:37:34;;;;;;;3.70;1.80;;;;;;;6.36;90.99;101449.16;5096094;28;20482;-70
2021/03/26 02:40:01;;;;;;;2.83;2.07;;;;;;;6.42;89.50;101442.75;5095974;28;20480;-70
2021/03/26 02:42:32;;;;;;;5.00;3.50;;;;;;;6.41;88.36;101441.94;5095964;28;20440;-68
2021/03/26 02:45:05;;;;;;;4.97;3.67;;;;;;;6.24;89.04;101447.41;5095642;28;20909;-70
2021/03/26 02:47:36;;;;;;;4.80;4.03;;;;;;;6.30;89.08;101446.41;5095949;28;20839;-70
2021/03/26 02:50:09;;;;;;;3.63;3.23;;;;;;;6.36;88.46;101441.09;5095889;28;20424;-70
2021/03/26 02:52:43;;;;;;;8.67;4.70;;;;;;;6.34;88.59;101443.22;5095759;28;20436;-70
2021/03/26 02:55:18;;;;;;;4.90;3.97;;;;;;;6.39;89.31;101445.97;5095465;28;20416;-69
2021/03/26 02:57:49;;;;;;;9.87;6.53;;;;;;;6.38;88.85;101438.97;5095683;28;20427;-69
2021/03/26 03:00:23;;;;;;;5.67;4.40;;;;;;;6.41;88.47;101444.63;5095626;28;20432;-70
2021/03/26 03:02:54;;;;;;;5.77;1.97;;;;;;;6.40;89.83;101442.22;5095663;28;20539;-69
2021/03/26 03:05:26;;;;;;;3.50;3.20;;;;;;;6.40;90.51;101443.00;5095619;28;20421;-70
2021/03/26 03:07:56;;;;;;;32.20;2.23;;;;;;;6.37;91.31;101442.69;5095475;28;20457;-70
2021/03/26 03:10:29;;;;;;;8.27;4.20;;;;;;;6.43;91.14;101436.34;5096134;28;20440;-70
2021/03/26 03:12:59;;;;;;;3.57;3.27;;;;;;;6.58;90.90;101439.19;5095042;28;21000;-70
2021/03/26 03:15:29;;;;;;;14.60;2.43;;;;;;;6.58;91.30;101448.06;5095463;28;20421;-70
2021/03/26 03:17:59;;;;;;;12.43;3.90;;;;;;;6.67;91.02;101453.00;5095220;28;20440;-70
2021/03/26 03:20:31;;;;;;;9.40;4.80;;;;;;;6.77;90.38;101447.72;5095333;28;20429;-70
2021/03/26 03:23:05;;;;;;;11.27;4.47;;;;;;;6.80;90.47;101444.50;5095174;28;20502;-70
2021/03/26 03:25:32;;;;;;;19.67;5.37;;;;;;;6.80;90.90;101444.50;5095161;28;20436;-69
2021/03/26 03:28:11;;;;;;;4.43;4.03;;;;;;;6.88;90.88;101438.69;5095064;28;20519;-69
2021/03/26 03:30:44;;;;;;;3.70;3.07;;;;;;;6.82;90.69;101432.44;5095067;28;20474;-69
2021/03/26 03:33:17;;;;;;;6.07;3.00;;;;;;;6.84;90.82;101424.09;5094631;28;20471;-70
2021/03/26 03:35:49;;;;;;;5.77;5.27;;;;;;;6.85;90.31;101428.41;5095041;28;20429;-69
2021/03/26 03:38:28;;;;;;;2.70;2.33;;;;;;;6.93;89.27;101432.53;5094779;28;20496;-70
2021/03/26 03:41:00;;;;;;;3.70;2.70;;;;;;;6.87;88.62;101436.25;5094902;28;20431;-70
2021/03/26 03:43:34;;;;;;;3.20;2.87;;;;;;;6.79;89.12;101424.84;5094652;28;20460;-70
2021/03/26 03:46:05;;;;;;;2.67;2.37;;;;;;;6.83;88.96;101425.16;5094844;28;20424;-70
2021/03/26 03:48:38;;;;;;;9.00;3.33;;;;;;;6.83;88.92;101422.47;5094765;28;20431;-70
2021/03/26 03:51:10;;;;;;;1.70;1.60;;;;;;;6.87;88.69;101431.66;5094621;28;20475;-69
2021/03/26 03:53:42;;;;;;;9.17;2.60;;;;;;;6.92;88.31;101423.63;5094493;28;20456;-70
2021/03/26 03:56:19;;;;;;;2.43;2.30;;;;;;;6.88;87.94;101421.72;5094534;28;20424;-70
2021/03/26 03:58:52;;;;;;;2.50;1.90;;;;;;;6.79;89.07;101430.25;5094468;28;20468;-69
2021/03/26 04:01:28;;;;;;;3.53;1.97;;;;;;;6.80;90.02;101425.66;5094490;28;20425;-70
2021/03/26 04:04:01;;;;;;;3.43;3.17;;;;;;;6.82;90.37;101427.06;5094412;28;20494;-69
2021/03/26 04:06:45;;;;;;;5.90;2.83;;;;;;;6.95;90.29;101424.97;5094340;28;20836;-69
2021/03/26 04:09:13;;;;;;;4.97;3.87;;;;;;;7.07;90.21;101426.44;5094392;28;20424;-72
2021/03/26 04:11:44;;;;;;;6.20;5.33;;;;;;;7.11;90.49;101423.25;5094273;28;20451;-70
2021/03/26 04:14:14;;;;;;;3.13;2.47;;;;;;;7.06;91.08;101416.75;5094221;28;20468;-70
2021/03/26 04:16:44;;;;;;;17.37;4.27;;;;;;;7.06;91.43;101416.75;5094757;28;20486;-71
2021/03/26 04:19:15;;;;;;;6.13;5.20;;;;;;;7.19;90.73;101423.59;5098459;28;20537;-70
2021/03/26 04:21:44;;;;;;;4.43;3.27;;;;;;;7.14;91.38;101415.47;5094091;28;20787;-70
2021/03/26 04:24:15;;;;;;;5.50;3.70;;;;;;;7.22;91.23;101424.97;5093923;28;20510;-70
2021/03/26 04:26:46;;;;;;;6.07;3.63;;;;;;;7.24;90.97;101426.31;5094070;28;20427;-70
2021/03/26 04:29:17;;;;;;;2.83;2.40;;;;;;;7.32;90.57;101428.53;5093958;28;20431;-70
2021/03/26 04:31:47;;;;;;;8.27;3.47;;;;;;;7.33;90.74;101430.16;5094019;28;20425;-71
2021/03/26 04:34:15;;;;;;;1.97;1.50;;;;;;;7.32;90.00;101431.22;5093461;28;20476;-71
2021/03/26 04:36:47;;;;;;;1.30;1.20;;;;;;;7.28;89.75;101427.44;5093866;28;20440;-70
2021/03/26 04:39:18;;;;;;;8.23;4.67;;;;;;;7.27;89.88;101431.19;5093428;28;20460;-70
2021/03/26 04:41:51;;;;;;;1.67;1.37;;;;;;;7.31;90.14;101439.59;5093876;28;20431;-71
2021/03/26 04:44:23;;;;;;;13.80;4.53;;;;;;;7.26;90.56;101429.59;5093797;28;20483;-71
2021/03/26 04:47:00;;;;;;;8.50;2.83;;;;;;;7.31;90.27;101436.91;5093173;28;20420;-70
2021/03/26 04:49:36;;;;;;;5.87;5.47;;;;;;;7.31;90.60;101432.31;5093673;28;20413;-70
2021/03/26 04:52:09;;;;;;;8.40;3.30;;;;;;;7.30;90.85;101440.63;5093334;28;20952;-70
2021/03/26 04:54:40;;;;;;;4.70;4.27;;;;;;;7.32;91.60;101444.72;5093343;28;20468;-70
2021/03/26 04:57:14;;;;;;;4.33;2.70;;;;;;;7.31;92.60;101442.28;5093615;28;20477;-70
2021/03/26 04:59:46;;;;;;;2.77;2.53;;;;;;;7.36;93.27;101436.94;5093517;28;20464;-69
2021/03/26 05:02:15;;;;;;;7.40;4.97;;;;;;;7.36;93.78;101439.63;5093527;28;20435;-69
2021/03/26 05:04:43;;;;;;;6.97;2.83;;;;;;;7.34;94.52;101450.63;5093381;28;20457;-69
2021/03/26 05:07:14;;;;;;;10.33;4.73;;;;;;;7.34;94.75;101447.94;5093151;28;20867;-68
2021/03/26 05:09:43;;;;;;;4.53;2.60;;;;;;;7.33;95.06;101457.09;5093432;28;20417;-70
2021/03/26 05:12:15;;;;;;;8.37;5.50;;;;;;;7.34;95.40;101452.53;5093209;28;20429;-70
2021/03/26 05:14:45;;;;;;;17.93;4.50;;;;;;;7.35;96.00;101467.66;5093314;28;20467;-70
2021/03/26 05:17:17;;;;;;;4.77;4.37;;;;;;;7.37;96.53;101468.19;5093342;28;20421;-66
2021/03/26 05:19:50;;;;;;;8.47;3.90;;;;;;;7.36;97.22;101471.16;5093416;28;20460;-72
2021/03/26 05:22:33;;;;;;;7.80;3.50;;;;;;;7.28;98.20;101458.97;5093317;28;20420;-69
2021/03/26 05:25:04;;;;;;;5.20;3.80;;;;;;;7.26;98.98;101464.63;5093026;28;20928;-70
2021/03/26 05:27:31;;;;;;;13.37;5.87;;;;;;;7.26;98.83;101461.91;5093249;28;20444;-69
2021/03/26 05:29:57;;;;;;;8.20;4.17;;;;;;;7.26;98.70;101471.84;5093197;28;20443;-68
2021/03/26 05:32:30;;;;;;;8.80;4.77;;;;;;;7.23;98.71;101472.38;5093024;28;20444;-65
2021/03/26 05:35:03;;;;;;;20.93;6.37;;;;;;;7.18;99.24;101467.78;5093159;28;20466;-68
2021/03/26 05:37:34;;;;;;;17.73;2.30;;;;;;;7.15;99.90;101460.19;5093200;28;20428;-68
2021/03/26 05:40:08;;;;;;;4.83;3.50;;;;;;;7.17;100.00;101468.84;5092743;28;20973;-68
2021/03/26 05:42:45;;;;;;;6.53;4.63;;;;;;;7.16;100.00;101461.81;5093027;28;20430;-68
2021/03/26 05:45:32;;;;;;;3.27;2.97;;;;;;;7.15;100.00;101462.88;5093176;28;20429;-68
2021/03/26 05:48:41;;;;;;;7.03;5.97;;;;;;;7.14;100.00;101463.97;5093170;28;20764;-68
2021/03/26 05:51:23;;;;;;;8.00;5.70;;;;;;;7.19;100.00;101461.31;5030614;28;20443;-68
2021/03/26 05:53:55;;;;;;;5.40;3.23;;;;;;;7.24;100.00;101449.75;5030440;28;20904;-68
2021/03/26 05:56:28;;;;;;;6.03;4.43;;;;;;;7.26;100.00;101456.53;5071344;28;20448;-68
2021/03/26 05:59:04;;;;;;;5.80;4.93;;;;;;;7.32;100.00;101460.88;5096870;28;20463;-68
2021/03/26 06:01:47;;;;;;;8.03;5.73;;;;;;;7.43;100.00;101463.63;5096496;28;20905;-68
2021/03/26 06:04:54;;;;;;;16.23;2.80;;;;;;;7.42;100.00;101462.03;5096689;28;20463;-69
2021/03/26 06:07:50;;;;;;;5.80;3.47;;;;;;;7.49;100.00;101473.41;5091208;28;20489;-74
2021/03/26 06:10:46;;;;;;;4.63;3.67;;;;;;;7.59;100.00;101474.28;5096520;28;20912;-73
2021/03/26 06:13:49;;;;;;;15.87;4.70;;;;;;;7.68;100.00;101474.63;5096642;28;20513;-73
2021/03/26 06:16:29;;;;;;;18.87;3.00;;;;;;;7.73;100.00;101469.25;5086010;28;20464;-73
2021/03/26 06:19:21;;;;;;;11.03;5.77;;;;;;;7.74;100.00;101472.75;5096516;28;20471;-74
2021/03/26 06:22:00;;;;;;;11.63;4.53;;;;;;;7.82;100.00;101470.38;5096655;28;20421;-72
2021/03/26 06:24:41;;;;;;;7.33;4.90;;;;;;;7.95;100.00;101471.00;5096380;28;20460;-72
2021/03/26 06:27:14;;;;;;;7.10;5.77;;;;;;;8.05;100.00;101473.75;5096454;28;20432;-71
2021/03/26 06:29:53;;;;;;;4.60;4.20;;;;;;;8.14;100.00;101472.16;5096471;28;20425;-72
2021/03/26 06:32:58;;;;;;;14.70;5.03;;;;;;;8.21;100.00;101477.34;5096375;28;20482;-74
2021/03/26 06:35:50;;;;;;;4.57;2.83;;;;;;;8.27;100.00;101470.88;5113413;22;20501;-66
2021/03/26 06:38:49;;;;;;;7.40;3.67;;;;;;;8.34;100.00;101472.28;5075849;28;20430;-64
2021/03/26 06:41:24;;;;;;;14.07;8.00;;;;;;;8.34;100.00;101472.28;5075550;28;20929;-64
2021/03/26 06:44:24;;;;;;;6.60;4.07;;;;;;;8.41;100.00;101463.97;5075467;28;20459;-64
2021/03/26 06:46:56;;;;;;;8.40;5.60;;;;;;;8.53;100.00;101463.72;5074668;28;20477;-64
2021/03/26 06:49:37;;;;;;;5.63;3.60;;;;;;;8.63;100.00;101465.63;5075687;28;20425;-65
2021/03/26 06:52:12;;;;;;;5.13;4.63;;;;;;;8.72;100.00;101474.84;5075698;28;20873;-64
2021/03/26 06:55:14;;;;;;;9.43;6.33;;;;;;;8.83;100.00;101471.91;5075553;28;20413;-63
2021/03/26 06:57:57;;;;;;;6.20;5.60;;;;;;;8.94;100.00;101486.25;5075427;28;20441;-64
2021/03/26 07:01:04;;;;;;;9.00;6.07;;;;;;;9.02;100.00;101482.19;5075418;28;20534;-65
2021/03/26 07:04:01;;;;;;;26.77;7.53;;;;;;;9.02;100.00;101476.78;5074989;28;20437;-65
2021/03/26 07:07:09;;;;;;;8.20;5.87;;;;;;;9.02;100.00;101482.19;5074456;28;20481;-63
2021/03/26 07:09:54;;;;;;;7.87;4.50;;;;;;;9.04;100.00;101478.16;5068966;28;20931;-64
2021/03/26 07:12:36;;;;;;;12.13;7.83;;;;;;;9.10;100.00;101479.78;5075305;28;20437;-66
2021/03/26 07:15:06;;;;;;;7.50;5.67;;;;;;;9.20;100.00;101478.97;5075220;28;20468;-66
2021/03/26 07:18:10;;;;;;;11.67;7.20;;;;;;;9.29;100.00;101477.34;5074816;28;20445;-66
2021/03/26 07:20:52;;;;;;;11.83;5.90;;;;;;;9.37;100.00;101486.00;5072596;28;20457;-66
2021/03/26 07:23:56;;;;;;;9.17;4.63;;;;;;;9.37;100.00;101494.13;5075162;28;20421;-66
2021/03/26 07:26:34;;;;;;;9.17;4.97;;;;;;;9.38;100.00;101484.94;5074845;28;20453;-66
2021/03/26 07:29:31;;;;;;;13.93;6.10;;;;;;;9.42;100.00;101489.53;5074591;28;20961;-67
2021/03/26 07:32:15;;;;;;;14.37;4.97;;;;;;;9.49;100.00;101491.97;5074823;28;20452;-66
2021/03/26 07:34:53;;;;;;;7.33;6.23;;;;;;;9.56;99.97;101487.91;5074780;28;20456;-69
2021/03/26 07:37:28;;;;;;;15.77;9.70;;;;;;;9.60;99.29;101485.44;5074533;28;20430;-67
2021/03/26 07:40:02;;;;;;;16.43;4.47;;;;;;;9.63;98.81;101479.50;5074813;28;20508;-66
2021/03/26 07:42:56;;;;;;;8.80;4.23;;;;;;;9.71;99.10;101486.28;5074736;28;20789;-66
2021/03/26 07:45:53;;;;;;;5.80;3.93;;;;;;;9.94;99.68;101482.16;5074699;28;20456;-64
2021/03/26 07:48:40;;;;;;;7.30;3.93;;;;;;;10.19;99.77;101490.22;5074456;28;20433;-66
2021/03/26 07:51:15;;;;;;;15.00;7.70;;;;;;;10.40;99.86;101496.38;5074545;28;20513;-66
2021/03/26 07:54:09;;;;;;;16.00;8.50;;;;;;;10.60;99.59;101509.84;5074333;28;20506;-67
2021/03/26 07:56:50;;;;;;;8.43;7.00;;;;;;;10.73;98.77;101494.88;5074033;28;20940;-66
2021/03/26 07:59:49;;;;;;;14.87;9.10;;;;;;;10.89;98.05;101489.34;5074340;28;20501;-66
2021/03/26 08:02:28;;;;;;;11.43;6.03;;;;;;;10.98;97.59;101487.66;5057570;28;20953;-66
2021/03/26 08:05:00;;;;;;;7.40;6.40;;;;;;;11.00;97.37;101490.94;5074167;28;20465;-66
2021/03/26 08:07:53;;;;;;;25.93;6.57;;;;;;;11.05;96.79;101496.31;5074156;28;20482;-67
2021/03/26 08:10:38;;;;;;;5.00;3.80;;;;;;;11.08;96.05;101498.47;5074137;28;20426;-67
2021/03/26 08:13:26;;;;;;;16.20;6.53;;;;;;;11.09;95.94;101500.06;5074060;28;20429;-66
2021/03/26 08:16:06;;;;;;;9.90;6.80;;;;;;;11.08;95.61;101495.75;5073581;28;20469;-67
2021/03/26 08:18:54;;;;;;;11.20;8.70;;;;;;;11.09;95.42;101503.59;5073558;28;20464;-66
2021/03/26 08:21:27;;;;;;;7.33;5.10;;;;;;;11.06;95.06;101498.72;5072632;28;20473;-67
2021/03/26 08:24:10;;;;;;;13.10;7.03;;;;;;;11.02;94.62;101497.69;5073422;28;20432;-66
2021/03/26 08:26:45;;;;;;;21.43;7.60;;;;;;;10.95;95.27;101496.38;5073360;28;20465;-66
2021/03/26 08:29:17;;;;;;;4.47;3.73;;;;;;;10.90;95.14;101494.50;5073754;28;20493;-66
2021/03/26 08:32:06;;;;;;;12.20;6.30;;;;;;;10.90;94.83;101486.38;5073809;28;20487;-66
2021/03/26 08:34:49;;;;;;;6.20;3.93;;;;;;;10.97;94.55;101499.63;5073383;28;21035;-66
2021/03/26 08:37:23;;;;;;;2.80;2.57;;;;;;;11.01;94.66;101500.66;5073545;28;20436;-65
2021/03/26 08:39:52;;;;;;;11.50;5.40;;;;;;;11.04;95.19;101500.13;5073614;28;20467;-66
2021/03/26 08:42:23;;;;;;;5.60;3.33;;;;;;;11.09;95.63;101497.38;5073674;28;20438;-67
2021/03/26 08:44:56;;;;;;;7.30;5.20;;;;;;;11.09;95.96;101495.47;5073637;28;20457;-66
2021/03/26 08:47:29;;;;;;;14.67;6.50;;;;;;;11.02;96.24;101502.28;5073596;28;20487;-66
2021/03/26 08:50:11;;;;;;;6.13;4.50;;;;;;;11.04;96.75;101500.13;5073432;28;20840;-66
2021/03/26 08:52:46;;;;;;;8.73;3.53;;;;;;;11.09;97.01;101497.38;5073487;28;20804;-66
2021/03/26 08:55:30;;;;;;;4.70;3.33;;;;;;;11.19;97.56;101489.16;5073433;28;20793;-64
2021/03/26 08:58:09;;;;;;;8.97;3.50;;;;;;;11.29;97.85;101502.66;5073145;28;20436;-67
2021/03/26 09:00:44;;;;;;;7.70;5.07;;;;;;;11.39;97.97;101501.75;5073291;28;20582;-67
2021/03/26 09:03:32;;;;;;;8.63;4.47;;;;;;;11.51;97.59;101494.06;5073308;28;20433;-66
2021/03/26 09:06:12;;;;;;;9.50;6.33;;;;;;;11.67;97.62;101494.72;5072840;28;20879;-67
2021/03/26 09:09:00;;;;;;;11.77;5.47;;;;;;;11.86;97.16;101508.41;5073034;28;20933;-67
2021/03/26 09:11:50;;;;;;;4.67;3.90;;;;;;;12.05;96.58;101506.59;5073320;28;20422;-66
2021/03/26 09:14:35;;;;;;;12.07;5.73;;;;;;;12.21;94.89;101509.13;5073086;28;20430;-67
2021/03/26 09:17:10;;;;;;;14.90;5.50;;;;;;;12.40;93.95;101510.00;5073166;28;20489;-67
2021/03/26 09:19:46;;;;;;;4.10;3.73;;;;;;;12.67;92.31;101503.16;5072796;28;20974;-67
2021/03/26 09:22:28;;;;;;;5.50;3.73;;;;;;;12.92;90.83;101507.41;5073210;28;20428;-66
2021/03/26 09:25:12;;;;;;;12.70;7.73;;;;;;;13.14;89.85;101502.19;5073201;28;20432;-67
2021/03/26 09:27:44;;;;;;;14.17;4.20;;;;;;;13.25;88.04;101498.25;5073098;28;20471;-66
2021/03/26 09:30:18;;;;;;;8.03;4.10;;;;;;;13.34;86.73;101499.19;5073063;28;20474;-67
2021/03/26 09:32:49;;;;;;;6.33;3.47;;;;;;;13.36;86.26;101493.44;5075687;28;20425;-66
2021/03/26 09:35:20;;;;;;;13.60;7.77;;;;;;;13.39;85.03;101490.13;5076818;28;21010;-67
2021/03/26 09:37:51;;;;;;;7.53;4.27;;;;;;;13.30;80.88;101490.00;5076976;28;20436;-66
2021/03/26 09:40:25;;;;;;;11.70;5.13;;;;;;;13.31;80.25;101497.03;5076389;28;20465;-68
2021/03/26 09:42:55;;;;;;;13.93;5.10;;;;;;;13.34;79.71;101488.28;5077159;28;20436;-67
2021/03/26 09:45:28;;;;;;;8.73;6.57;;;;;;;13.31;79.48;101486.16;5076371;28;20476;-66
2021/03/26 09:48:45;;;;;;;5.00;3.47;;;;;;;13.34;77.66;101479.31;5076730;28;20844;-66
2021/03/26 09:51:21;;;;;;;4.13;2.40;;;;;;;13.25;74.14;101475.66;5058792;28;20497;-67
2021/03/26 09:53:48;;;;;;;8.07;4.57;;;;;;;13.36;76.22;101477.91;5076779;28;20421;-66
2021/03/26 09:56:24;;;;;;;8.50;3.10;;;;;;;13.37;74.72;101465.13;5076545;28;20464;-67
2021/03/26 09:58:56;;;;;;;7.17;3.60;;;;;;;13.54;75.47;101472.72;5076706;28;20468;-67
2021/03/26 10:01:25;;;;;;;5.00;3.53;;;;;;;13.61;75.35;101473.16;5076525;28;20441;-66
2021/03/26 10:03:55;;;;;;;8.00;4.67;;;;;;;13.72;74.64;101466.41;5076221;28;20456;-67
2021/03/26 10:06:37;;;;;;;11.00;6.40;;;;;;;13.60;71.88;101466.09;5076193;28;20457;-66
2021/03/26 10:09:11;;;;;;;5.43;2.93;;;;;;;13.74;72.81;101466.91;5076570;28;20421;-67
2021/03/26 10:11:59;;;;;;;7.00;4.77;;;;;;;13.94;73.17;101476.59;5076390;28;20429;-66
2021/03/26 10:14:29;;;;;;;8.23;4.60;;;;;;;14.19;73.06;101478.03;5076324;28;20512;-66
2021/03/26 10:17:30;;;;;;;9.30;6.53;;;;;;;14.26;69.41;101473.00;5076157;28;20467;-67
2021/03/26 10:20:05;;;;;;;9.17;6.40;;;;;;;14.38;70.84;101467.00;5075835;28;20571;-68
2021/03/26 10:22:40;;;;;;;18.63;5.23;;;;;;;14.37;72.81;101468.13;5076145;28;20582;-67
2021/03/26 10:25:18;;;;;;;11.70;5.10;;;;;;;14.39;73.18;101469.47;5076098;28;20539;-67
2021/03/26 10:27:54;;;;;;;11.33;7.43;;;;;;;14.33;73.05;101462.47;5076126;28;20436;-67
2021/03/26 10:30:24;;;;;;;4.63;2.87;;;;;;;14.43;73.84;101457.91;5076038;28;20430;-66
2021/03/26 10:32:50;;;;;;;4.00;2.30;;;;;;;14.52;72.98;101450.66;5075993;28;20444;-67
2021/03/26 10:35:21;;;;;;;8.67;4.10;;;;;;;14.71;72.24;101456.78;5075638;28;20473;-66
2021/03/26 10:37:56;;;;;;;14.17;5.90;;;;;;;14.85;70.42;101460.28;5075663;28;20797;-68
2021/03/26 10:40:30;;;;;;;10.03;4.57;;;;;;;14.87;69.45;101452.63;5075888;28;20514;-67
2021/03/26 10:43:06;;;;;;;6.83;3.20;;;;;;;14.99;69.84;101452.03;5075399;28;20515;-67
2021/03/26 10:45:47;;;;;;;13.00;2.87;;;;;;;15.03;69.97;101452.25;5075437;28;20521;-67
2021/03/26 10:48:23;;;;;;;7.93;4.77;;;;;;;15.09;70.12;101442.81;5075725;28;20432;-67
2021/03/26 10:51:17;;;;;;;9.33;4.93;;;;;;;15.13;70.58;101443.78;5075776;28;20449;-65
2021/03/26 10:53:50;;;;;;;8.20;3.17;;;;;;;15.15;69.81;101427.94;5075647;28;20426;-67
2021/03/26 10:56:38;;;;;;;7.30;5.03;;;;;;;15.22;70.04;101427.47;5075533;28;20458;-66
2021/03/26 10:59:12;;;;;;;16.20;6.37;;;;;;;15.20;69.06;101436.00;5075269;28;20473;-66
2021/03/26 11:01:42;;;;;;;10.90;6.40;;;;;;;15.21;69.37;101429.41;5075621;28;20926;-67
2021/03/26 11:04:21;;;;;;;8.30;4.10;;;;;;;15.11;68.64;101429.66;5075422;28;20911;-67
2021/03/26 11:06:53;;;;;;;8.27;5.03;;;;;;;15.13;68.85;101435.59;5075458;28;20465;-67
2021/03/26 11:09:25;;;;;;;8.00;3.93;;;;;;;15.01;69.08;101417.09;5075695;28;20494;-66
2021/03/26 11:11:59;;;;;;;13.70;5.30;;;;;;;15.04;69.81;101413.72;5075550;28;20425;-67
2021/03/26 11:14:56;;;;;;;9.27;3.90;;;;;;;14.99;69.21;101413.84;5075316;28;20420;-66
2021/03/26 11:17:29;;;;;;;8.07;4.33;;;;;;;15.12;68.82;101414.91;5069644;28;20468;-64
2021/03/26 11:20:19;;;;;;;7.90;4.10;;;;;;;15.28;68.01;101410.69;5074956;28;20488;-65
2021/03/26 11:22:54;;;;;;;9.50;5.30;;;;;;;15.43;66.50;101408.66;5075017;28;20461;-63
2021/03/26 11:25:26;;;;;;;7.97;4.87;;;;;;;15.73;64.26;101407.88;5075160;28;20459;-63
2021/03/26 11:27:54;;;;;;;5.53;3.67;;;;;;;16.00;63.06;101408.75;5074980;28;20418;-65
2021/03/26 11:30:32;;;;;;;9.43;4.33;;;;;;;16.27;62.10;101404.97;5074769;28;20444;-66
2021/03/26 11:33:10;;;;;;;7.07;3.33;;;;;;;16.59;61.45;101406.44;5074602;28;20921;-67
2021/03/26 11:35:40;;;;;;;5.07;3.90;;;;;;;16.84;60.32;101405.66;5074650;28;20477;-67
2021/03/26 11:38:12;;;;;;;6.97;5.60;;;;;;;17.51;58.50;101406.97;5074433;28;21000;-66
2021/03/26 11:40:45;;;;;;;6.60;3.57;;;;;;;18.13;56.09;101406.38;5074491;28;20461;-66
2021/03/26 11:43:15;;;;;;;5.00;3.03;;;;;;;18.97;52.76;101400.13;5074964;28;20431;-67
2021/03/26 11:45:45;;;;;;;15.60;8.83;;;;;;;19.68;51.56;101407.28;5074893;28;20461;-66
2021/03/26 11:48:16;;;;;;;14.43;5.80;;;;;;;20.21;50.82;101410.94;5074401;28;20938;-67
2021/03/26 11:50:54;;;;;;;19.33;9.40;;;;;;;19.96;50.08;101402.69;5074640;28;20433;-66
2021/03/26 11:53:29;;;;;;;18.53;8.03;;;;;;;19.63;50.68;101406.38;5074751;28;20421;-67
2021/03/26 11:56:10;;;;;;;15.20;7.90;;;;;;;19.29;50.59;101406.72;5074314;28;20461;-67
2021/03/26 11:58:47;;;;;;;22.80;8.53;;;;;;;18.95;48.98;101402.38;5074379;28;20807;-66
2021/03/26 12:01:19;;;;;;;16.27;8.17;;;;;;;18.74;50.32;101392.25;5074320;28;20445;-66
2021/03/26 12:03:57;;;;;;;16.67;9.33;;;;;;;18.72;50.91;101389.03;5074236;28;20467;-66
2021/03/26 12:06:30;;;;;;;14.30;8.70;;;;;;;18.82;51.46;101388.63;5074337;28;20456;-67